Time;durP1;ratioP1;P1;durP2;ratioP2;P2;SDS_P1;SDS_P2;PMS_P1;PMS_P2;Temp;Humidity;BMP_temperature;BMP_pressure;BME280_temperature;BME280_humidity;BME280_pressure;Samples;Min_cycle;Max_cycle;Signal;HPM_P1;HPM_P2
2023/01/11 00:00:37;;;;;;;2.53;0.85;;;6.20;99.90;;;5.42;100.00;97389.59;5038365;28;20102;-39
2023/01/11 00:03:04;;;;;;;2.75;0.80;;;6.20;99.90;;;5.46;100.00;97386.03;5028267;28;20225;-39
2023/01/11 00:05:30;;;;;;;2.60;0.90;;;6.20;99.90;;;5.40;100.00;97380.03;5033874;28;20036;-39
2023/01/11 00:07:57;;;;;;;4.15;0.85;;;6.20;99.90;;;5.48;100.00;97378.16;5036323;28;20094;-39
2023/01/11 00:10:23;;;;;;;3.50;0.90;;;6.20;99.90;;;5.48;100.00;97384.25;5030493;28;20033;-39
2023/01/11 00:12:48;;;;;;;1.30;0.70;;;6.20;99.90;;;5.54;100.00;97385.88;5032217;28;20029;-39
2023/01/11 00:15:14;;;;;;;1.80;0.85;;;6.30;99.90;;;5.54;100.00;97385.88;5034079;28;20086;-39
2023/01/11 00:17:40;;;;;;;3.20;0.95;;;6.30;99.90;;;5.55;100.00;97377.16;5033852;28;20072;-39
2023/01/11 00:20:09;;;;;;;4.30;0.90;;;6.30;99.90;;;5.57;100.00;97378.00;5035176;28;20025;-39
2023/01/11 00:22:34;;;;;;;2.50;0.93;;;6.30;99.90;;;5.58;100.00;97376.25;5033595;28;20121;-39
2023/01/11 00:25:00;;;;;;;1.27;0.60;;;6.30;99.90;;;5.60;100.00;97372.72;5038178;28;20319;-39
2023/01/11 00:27:26;;;;;;;1.65;0.70;;;6.30;99.90;;;5.61;100.00;97363.13;5039814;28;20051;-39
2023/01/11 00:29:51;;;;;;;1.60;0.70;;;6.30;99.90;;;5.62;100.00;97367.47;5034745;28;20493;-39
2023/01/11 00:32:17;;;;;;;2.63;0.70;;;6.40;99.90;;;5.64;100.00;97357.84;5038660;28;20046;-39
2023/01/11 00:34:43;;;;;;;3.60;0.70;;;6.40;99.90;;;5.64;100.00;97353.44;5045421;28;20036;-39
2023/01/11 00:37:09;;;;;;;4.57;0.85;;;6.40;99.90;;;5.68;100.00;97354.25;5041885;28;20075;-39
2023/01/11 00:39:35;;;;;;;2.47;0.75;;;6.40;99.90;;;5.71;100.00;97347.22;5037501;28;20028;-39
2023/01/11 00:47:59;;;;;;;2.72;0.80;;;6.50;99.90;;;5.73;100.00;97334.09;5000849;28;20177;-39
2023/01/11 00:50:43;;;;;;;1.00;0.50;;;6.50;99.90;;;5.73;100.00;97321.03;5031067;28;20056;-39
2023/01/11 00:53:09;;;;;;;0.98;0.50;;;6.40;99.90;;;5.67;100.00;97319.41;5026336;28;20734;-39
2023/01/11 00:55:35;;;;;;;1.52;0.70;;;6.40;99.90;;;5.76;100.00;97310.50;5030095;28;20090;-39
2023/01/11 00:58:01;;;;;;;2.97;0.65;;;6.40;99.90;;;5.79;100.00;97323.50;5031146;28;20062;-39
2023/01/11 01:00:28;;;;;;;2.40;0.68;;;6.50;99.90;;;5.72;100.00;97319.28;5018418;28;20519;-39
2023/01/11 01:02:53;;;;;;;1.27;0.60;;;6.50;99.90;;;5.59;100.00;97286.41;5028096;28;20036;-39
2023/01/11 01:05:19;;;;;;;3.17;0.60;;;6.50;99.90;;;5.71;100.00;97309.72;5037456;28;20040;-39
2023/01/11 01:07:45;;;;;;;1.45;0.70;;;6.40;99.90;;;5.62;100.00;97312.53;5022308;28;20444;-39
2023/01/11 01:10:14;;;;;;;1.98;0.60;;;6.30;99.90;;;5.53;100.00;97305.72;5029095;28;20090;-39
2023/01/11 01:15:25;;;;;;;1.40;0.60;;;6.20;99.90;;;5.44;100.00;97311.09;5031849;28;20052;-39
2023/01/11 01:17:55;;;;;;;1.73;0.60;;;6.20;99.90;;;5.36;100.00;97308.59;5034542;28;20017;-39
2023/01/11 01:20:22;;;;;;;3.45;0.65;;;6.10;99.90;;;5.34;100.00;97310.41;5030616;28;20072;-39
2023/01/11 01:22:48;;;;;;;0.98;0.70;;;6.10;99.90;;;5.14;100.00;97295.91;5037786;28;20048;-39
2023/01/11 01:25:15;;;;;;;3.30;0.80;;;6.00;99.90;;;5.29;100.00;97315.72;5034416;28;20029;-39
2023/01/11 01:27:41;;;;;;;2.15;0.75;;;6.00;99.90;;;5.40;100.00;97328.59;5034639;28;20021;-39
2023/01/11 01:30:08;;;;;;;0.73;0.50;;;6.10;99.90;;;5.37;100.00;97320.81;5039606;28;20547;-39
2023/01/11 01:32:33;;;;;;;1.85;0.65;;;6.10;99.90;;;5.43;100.00;97327.69;5026410;28;20036;-39
2023/01/11 01:34:59;;;;;;;1.23;0.70;;;6.10;99.90;;;5.39;100.00;97333.84;5036634;28;20029;-39
2023/01/11 01:37:25;;;;;;;2.05;0.63;;;6.10;99.90;;;5.29;100.00;97317.44;5040140;28;20715;-39
2023/01/11 01:39:50;;;;;;;0.95;0.68;;;6.00;99.90;;;5.22;100.00;97318.44;5040757;28;20032;-39
2023/01/11 01:42:20;;;;;;;3.60;0.60;;;6.00;99.90;;;5.15;100.00;97307.22;5033216;28;20564;-39
2023/01/11 01:45:25;;;;;;;3.22;0.77;;;5.90;99.90;;;5.14;100.00;97306.38;5026195;28;20551;-39
2023/01/11 01:48:01;;;;;;;1.13;0.60;;;5.80;99.90;;;5.11;100.00;97298.56;5036486;28;20025;-39
2023/01/11 01:50:32;;;;;;;2.40;0.60;;;5.80;99.90;;;5.04;100.00;97296.94;5022614;28;20036;-39
2023/01/11 01:53:19;;;;;;;1.57;0.70;;;5.80;99.90;;;5.06;100.00;97296.91;5036528;28;20527;-39
2023/01/11 01:55:52;;;;;;;3.00;0.60;;;5.80;99.90;;;5.19;100.00;97289.72;5019866;28;20144;-39
2023/01/11 01:58:28;;;;;;;2.75;0.98;;;5.90;99.90;;;5.14;100.00;97290.69;5029652;28;20032;-39
2023/01/11 02:00:54;;;;;;;0.90;0.50;;;5.90;99.90;;;5.12;100.00;97275.91;5032471;28;20037;-39
2023/01/11 02:03:25;;;;;;;4.82;0.85;;;5.80;99.90;;;5.10;100.00;97267.25;5032607;28;20524;-39
2023/01/11 02:05:52;;;;;;;3.45;0.60;;;5.80;99.90;;;5.14;100.00;97275.00;5038353;28;20036;-39
2023/01/11 02:08:32;;;;;;;2.80;0.70;;;5.90;99.90;;;5.18;100.00;97285.41;5030480;28;20036;-39
2023/01/11 02:10:58;;;;;;;1.90;0.77;;;5.90;99.90;;;5.17;100.00;97274.09;5035636;28;20055;-39
2023/01/11 02:13:24;;;;;;;1.38;0.50;;;5.90;99.90;;;5.27;100.00;97269.56;5024613;28;20028;-39
2023/01/11 02:16:06;;;;;;;2.10;0.57;;;6.00;99.90;;;5.35;100.00;97271.13;5030594;28;20028;-39
2023/01/11 02:22:43;;;;;;;1.20;0.60;;;6.20;99.90;;;5.29;100.00;97211.13;5027785;28;20535;-39
2023/01/11 02:25:52;;;;;;;1.67;0.60;;;6.20;99.90;;;5.59;100.00;97250.63;5013794;28;20040;-39
2023/01/11 02:28:26;;;;;;;3.03;0.80;;;6.20;99.90;;;5.55;100.00;97247.22;5033861;28;20047;-39
2023/01/11 02:31:01;;;;;;;0.73;0.55;;;6.30;99.90;;;5.54;100.00;97252.47;5023943;28;20703;-39
2023/01/11 02:33:38;;;;;;;3.83;0.80;;;6.20;99.90;;;5.49;100.00;97238.63;5027435;28;20036;-39
2023/01/11 02:36:48;;;;;;;1.58;0.45;;;6.20;99.90;;;5.47;100.00;97237.78;5027325;23;20041;-49
2023/01/11 02:39:29;;;;;;;0.88;0.47;;;6.10;99.90;;;5.48;100.00;97235.16;5009809;28;20068;-51
2023/01/11 02:45:39;;;;;;;1.30;0.50;;;6.10;99.90;;;5.46;100.00;97242.16;5021393;28;20141;-49
2023/01/11 02:48:38;;;;;;;1.42;0.50;;;6.20;99.90;;;5.51;100.00;97242.09;5004994;28;20116;-49
2023/01/11 02:51:11;;;;;;;2.50;0.60;;;6.20;99.90;;;5.54;100.00;97252.47;4999778;28;20047;-52
2023/01/11 02:54:02;;;;;;;0.60;0.40;;;6.20;99.90;;;5.65;100.00;97245.31;4982935;28;20037;-50
2023/01/11 02:56:34;;;;;;;1.25;0.60;;;6.30;99.90;;;5.71;100.00;97241.69;4990263;28;20040;-50
2023/01/11 02:59:01;;;;;;;3.72;0.60;;;6.30;99.90;;;5.79;100.00;97247.63;4992442;28;20295;-51
2023/01/11 03:01:26;;;;;;;1.45;0.65;;;6.40;99.90;;;5.85;100.00;97233.53;5011583;28;20297;-51
2023/01/11 03:03:53;;;;;;;1.15;0.30;;;6.50;99.90;;;5.92;100.00;97222.94;5006549;28;20048;-51
2023/01/11 03:06:26;;;;;;;1.35;0.60;;;6.60;99.90;;;6.15;100.00;97239.06;5007662;28;20033;-50
2023/01/11 03:09:19;;;;;;;1.52;0.55;;;6.80;99.90;;;6.24;100.00;97233.63;5008735;28;20111;-50
2023/01/11 03:15:54;;;;;;;1.98;0.55;;;7.00;99.90;;;6.47;100.00;97231.34;4982401;28;20103;-51
2023/01/11 03:18:40;;;;;;;3.13;0.40;;;7.20;99.90;;;6.48;100.00;97237.47;5009470;28;20040;-51
2023/01/11 03:21:39;;;;;;;1.08;0.50;;;7.20;99.90;;;6.43;100.00;97239.31;5009577;28;20045;-50
2023/01/11 03:24:25;;;;;;;1.10;0.40;;;7.20;99.90;;;6.33;100.00;97243.88;4987081;28;20116;-49
2023/01/11 03:27:09;;;;;;;1.23;0.98;;;7.00;99.90;;;6.27;100.00;97238.81;5001155;28;20029;-50
2023/01/11 03:29:47;;;;;;;1.10;0.32;;;7.00;99.90;;;6.28;100.00;97241.38;4986542;28;20646;-51
2023/01/11 03:32:22;;;;;;;1.08;0.40;;;7.00;99.90;;;6.31;100.00;97236.06;5001108;28;20026;-51
2023/01/11 03:35:17;;;;;;;0.50;0.35;;;7.00;99.90;;;6.34;100.00;97239.53;5002249;28;20493;-51
2023/01/11 03:37:56;;;;;;;2.47;0.40;;;7.00;99.90;;;6.40;100.00;97235.00;4987796;28;20044;-50
2023/01/11 03:40:28;;;;;;;1.08;0.28;;;7.10;99.90;;;6.40;100.00;97235.00;4992519;28;20021;-50
2023/01/11 03:43:12;;;;;;;0.80;0.40;;;7.10;99.90;;;6.43;100.00;97239.31;4990997;28;20037;-49
2023/01/11 03:45:58;;;;;;;0.88;0.32;;;7.00;99.90;;;6.41;100.00;97231.50;4987841;28;20036;-49
2023/01/11 03:48:39;;;;;;;0.73;0.40;;;7.10;99.90;;;6.42;100.00;97224.47;5007060;28;20851;-51
2023/01/11 03:51:11;;;;;;;0.68;0.40;;;7.10;99.90;;;6.39;100.00;97214.94;4990307;28;20520;-50
2023/01/11 03:53:39;;;;;;;0.93;0.40;;;7.10;99.90;;;6.42;100.00;97216.63;5000789;28;20083;-51
2023/01/11 03:56:09;;;;;;;0.95;0.40;;;7.00;99.90;;;6.36;100.00;97211.53;5005993;28;20502;-50
2023/01/11 03:58:35;;;;;;;0.20;0.20;;;7.00;99.90;;;6.43;100.00;97200.88;4989625;28;20030;-51
2023/01/11 04:01:02;;;;;;;0.40;0.40;;;7.10;99.90;;;6.50;100.00;97202.44;4980796;28;20025;-50
2023/01/11 04:03:28;;;;;;;0.75;0.50;;;7.10;99.90;;;6.54;100.00;97198.00;5004214;28;20586;-52
2023/01/11 04:05:59;;;;;;;0.25;0.25;;;7.20;99.90;;;6.59;100.00;97197.91;4985353;28;20037;-50
2023/01/11 04:08:25;;;;;;;1.33;0.57;;;7.30;99.90;;;6.60;100.00;97186.50;4991176;28;20063;-51
2023/01/11 04:10:50;;;;;;;1.90;0.30;;;7.30;99.90;;;6.67;100.00;97196.78;5001853;28;20028;-50
2023/01/11 04:13:16;;;;;;;1.20;0.38;;;7.40;99.90;;;6.75;100.00;97194.00;5007512;28;20091;-50
2023/01/11 04:15:42;;;;;;;0.43;0.20;;;7.40;99.90;;;6.77;100.00;97178.25;5000389;28;20030;-48
2023/01/11 04:18:07;;;;;;;2.65;0.60;;;7.40;99.90;;;6.74;100.00;97183.56;5000087;28;20354;-50
2023/01/11 04:20:37;;;;;;;0.85;0.40;;;7.50;99.90;;;6.85;100.00;97181.50;5002854;28;20252;-48
2023/01/11 04:23:04;;;;;;;1.60;0.38;;;7.50;99.90;;;6.86;100.00;97172.75;4997221;28;20037;-50
2023/01/11 04:25:30;;;;;;;1.25;0.40;;;7.50;99.90;;;6.93;100.00;97186.53;5002989;28;20043;-50
2023/01/11 04:27:55;;;;;;;0.38;0.30;;;7.50;99.90;;;6.93;100.00;97178.69;5001779;28;20138;-50
2023/01/11 04:30:22;;;;;;;0.20;0.20;;;7.60;99.90;;;6.92;100.00;97177.84;5005894;28;20030;-50
2023/01/11 04:32:48;;;;;;;0.98;0.40;;;7.60;99.90;;;6.90;100.00;97176.16;5001110;28;20064;-47
2023/01/11 04:35:14;;;;;;;0.30;0.30;;;7.60;99.90;;;6.90;100.00;97165.69;4995055;28;20623;-50
2023/01/11 04:37:40;;;;;;;0.35;0.35;;;7.60;99.90;;;6.92;100.00;97185.69;5004315;28;20037;-50
2023/01/11 04:40:07;;;;;;;0.47;0.30;;;7.60;99.90;;;6.88;100.00;97191.94;5004437;28;20477;-50
2023/01/11 04:42:33;;;;;;;0.20;0.17;;;7.50;99.90;;;6.89;100.00;97198.88;4998271;28;20187;-51
2023/01/11 04:44:58;;;;;;;0.50;0.30;;;7.50;99.90;;;6.85;100.00;97187.59;5000609;28;20390;-49
2023/01/11 04:47:24;;;;;;;0.98;0.50;;;7.50;99.90;;;6.71;100.00;97181.84;5003293;28;20353;-50
2023/01/11 04:49:51;;;;;;;0.45;0.40;;;7.40;99.90;;;6.58;100.00;97169.97;5003271;28;20040;-47
2023/01/11 04:52:19;;;;;;;1.67;0.68;;;7.30;99.90;;;6.47;100.00;97162.38;4998107;28;20041;-50
2023/01/11 04:54:46;;;;;;;2.72;0.52;;;7.10;99.90;;;6.44;100.00;97151.97;4994703;28;20030;-48
2023/01/11 04:57:14;;;;;;;0.80;0.40;;;7.00;99.90;;;6.30;100.00;97145.31;5002119;28;20604;-47
2023/01/11 04:59:40;;;;;;;2.05;0.35;;;7.00;99.90;;;6.23;100.00;97133.25;5004688;28;20178;-47
2023/01/11 05:02:06;;;;;;;0.93;0.40;;;6.90;99.90;;;6.18;100.00;97137.75;4997752;28;20398;-50
2023/01/11 05:04:32;;;;;;;0.73;0.35;;;6.90;99.90;;;6.16;100.00;97150.00;4993165;28;20041;-51
2023/01/11 05:06:58;;;;;;;0.45;0.15;;;6.80;99.90;;;6.10;100.00;97150.13;4997354;28;20145;-46
2023/01/11 05:09:23;;;;;;;0.80;0.30;;;6.80;99.90;;;6.03;100.00;97159.03;4993489;28;20122;-51
2023/01/11 05:11:49;;;;;;;0.43;0.20;;;6.70;99.90;;;6.04;100.00;97166.84;5000174;28;20167;-47
2023/01/11 05:14:16;;;;;;;2.28;0.40;;;6.70;99.90;;;6.00;100.00;97161.75;4995604;28;20206;-49
2023/01/11 05:16:42;;;;;;;0.88;0.30;;;6.70;99.90;;;6.02;100.00;97159.94;5002515;28;20150;-50
2023/01/11 05:19:10;;;;;;;1.23;0.30;;;6.70;99.90;;;5.95;100.00;97156.56;5004152;28;20377;-51
2023/01/11 05:21:39;;;;;;;1.33;0.32;;;6.60;99.90;;;5.93;100.00;97158.34;5006442;28;20030;-50
2023/01/11 05:24:10;;;;;;;0.40;0.28;;;6.60;99.90;;;5.97;100.00;97149.56;4982301;28;20037;-50
2023/01/11 05:26:39;;;;;;;1.90;0.35;;;6.60;99.90;;;5.94;100.00;97149.63;4996303;28;20052;-47
2023/01/11 05:29:08;;;;;;;1.95;0.40;;;6.60;99.90;;;5.90;100.00;97140.97;4999152;28;20500;-50
2023/01/11 05:31:37;;;;;;;1.02;0.40;;;6.60;99.90;;;5.86;100.00;97141.91;5000304;28;20044;-46
2023/01/11 05:34:05;;;;;;;0.70;0.40;;;6.60;99.90;;;5.88;100.00;97147.97;5000403;28;20504;-50
2023/01/11 05:36:32;;;;;;;1.10;0.47;;;6.50;99.90;;;5.86;100.00;97144.53;5005947;28;20032;-47
2023/01/11 05:38:58;;;;;;;1.65;0.40;;;6.60;99.90;;;5.81;100.00;97146.38;4991410;28;20565;-52
2023/01/11 05:41:26;;;;;;;0.45;0.20;;;6.50;99.90;;;5.77;100.00;97154.34;4997502;28;20034;-50
2023/01/11 05:46:40;;;;;;;1.02;0.30;;;6.40;99.90;;;5.78;100.00;97161.28;4998922;28;20100;-51
2023/01/11 05:49:07;;;;;;;1.40;0.40;;;6.50;99.90;;;5.76;100.00;97156.13;5003969;28;20041;-49
2023/01/11 05:51:34;;;;;;;0.45;0.40;;;6.50;99.90;;;5.72;100.00;97147.47;5006024;28;20033;-52
2023/01/11 05:54:02;;;;;;;1.40;0.60;;;6.50;99.90;;;5.71;100.00;97144.88;5001485;28;20965;-46
2023/01/11 05:56:28;;;;;;;1.17;0.45;;;6.40;99.90;;;5.73;100.00;97145.72;5007306;28;20049;-50
2023/01/11 05:58:54;;;;;;;0.55;0.35;;;6.40;99.90;;;5.77;100.00;97139.50;5005753;28;20478;-48
2023/01/11 06:01:22;;;;;;;0.52;0.40;;;6.40;99.90;;;5.77;100.00;97131.66;5005370;28;20180;-50
2023/01/11 06:03:48;;;;;;;1.52;0.40;;;6.40;99.90;;;5.72;100.00;97130.88;4995260;28;20124;-47
2023/01/11 06:06:15;;;;;;;0.55;0.40;;;6.40;99.90;;;5.69;100.00;97128.38;4999288;28;20475;-48
2023/01/11 06:08:41;;;;;;;0.60;0.32;;;6.40;99.90;;;5.67;100.00;97117.94;4995076;28;20125;-50
2023/01/11 06:11:07;;;;;;;0.68;0.43;;;6.40;99.90;;;5.75;100.00;97115.13;5007109;28;20034;-55
2023/01/11 06:13:33;;;;;;;0.60;0.40;;;6.40;99.90;;;5.82;100.00;97092.31;5009399;28;20112;-49
2023/01/11 06:16:09;;;;;;;0.68;0.63;;;6.50;99.90;;;5.70;100.00;97065.50;5003073;28;20030;-51
2023/01/11 06:18:38;;;;;;;1.05;0.50;;;6.50;99.90;;;5.84;100.00;97088.75;5011271;28;20079;-50
2023/01/11 06:21:04;;;;;;;0.50;0.30;;;6.50;99.90;;;5.83;100.00;97081.81;4996000;28;20025;-47
2023/01/11 06:23:33;;;;;;;0.73;0.47;;;6.50;99.90;;;5.84;100.00;97080.91;4998165;28;20038;-50
2023/01/11 06:26:04;;;;;;;1.08;0.50;;;6.50;99.90;;;5.89;100.00;97084.28;5005570;28;20038;-46
2023/01/11 06:28:30;;;;;;;1.10;0.35;;;6.60;99.90;;;5.88;100.00;97076.47;5010122;28;20173;-48
2023/01/11 06:30:57;;;;;;;0.98;0.45;;;6.60;99.90;;;5.88;100.00;97090.41;5009782;28;20465;-49
2023/01/11 06:33:25;;;;;;;0.85;0.40;;;6.50;99.90;;;5.88;100.00;97084.31;5011650;28;20619;-47
2023/01/11 06:35:52;;;;;;;1.25;0.40;;;6.60;99.90;;;5.91;100.00;97094.72;5011553;28;20036;-49
2023/01/11 06:38:20;;;;;;;0.52;0.25;;;6.60;99.90;;;5.91;100.00;97084.25;5009845;28;20064;-50
2023/01/11 06:40:59;;;;;;;1.27;0.40;;;6.60;99.90;;;5.98;100.00;97080.63;5003248;28;20119;-49
2023/01/11 06:43:27;;;;;;;4.03;0.55;;;6.60;99.90;;;6.01;100.00;97079.66;5011166;28;20065;-50
2023/01/11 06:45:53;;;;;;;0.77;0.40;;;6.60;99.90;;;6.03;100.00;97078.75;5012405;28;20018;-46
2023/01/11 06:48:20;;;;;;;1.02;0.43;;;6.70;99.90;;;6.04;100.00;97074.38;5016050;28;20379;-48
2023/01/11 06:50:53;;;;;;;1.45;0.50;;;6.70;99.90;;;6.04;100.00;97071.75;5016234;28;20033;-50
2023/01/11 06:53:20;;;;;;;0.63;0.50;;;6.70;99.90;;;6.13;100.00;97070.69;5014240;28;20092;-52
2023/01/11 06:55:54;;;;;;;0.63;0.40;;;6.80;99.90;;;6.13;100.00;97063.66;5015241;28;20033;-50
2023/01/11 06:58:22;;;;;;;1.15;0.70;;;6.80;99.90;;;6.19;100.00;97074.00;4999132;28;20033;-50
2023/01/11 07:00:49;;;;;;;1.27;0.47;;;6.80;99.90;;;6.18;100.00;97074.03;5004671;28;20025;-47
2023/01/11 07:03:15;;;;;;;0.30;0.30;;;6.80;99.90;;;6.22;100.00;97087.00;5009994;28;20029;-49
2023/01/11 07:05:42;;;;;;;0.95;0.40;;;6.90;99.90;;;6.26;100.00;97088.66;5014563;28;20390;-52
2023/01/11 07:08:09;;;;;;;0.40;0.30;;;6.90;99.90;;;6.25;100.00;97079.09;4999757;28;20470;-46
2023/01/11 07:10:35;;;;;;;0.50;0.40;;;7.00;99.90;;;6.27;100.00;97089.53;5016889;28;20068;-51
2023/01/11 07:13:01;;;;;;;1.05;0.32;;;7.00;99.90;;;6.31;100.00;97078.06;5016272;28;20366;-50
2023/01/11 07:15:26;;;;;;;1.27;0.45;;;7.00;99.90;;;6.37;100.00;97077.94;5015668;28;20133;-50
2023/01/11 07:17:54;;;;;;;0.60;0.60;;;7.00;99.90;;;6.43;100.00;97074.28;5003210;28;20030;-47
2023/01/11 07:20:21;;;;;;;0.77;0.40;;;7.10;99.90;;;6.55;100.00;97070.47;5020509;28;20505;-50
2023/01/11 07:22:47;;;;;;;0.90;0.40;;;7.20;99.90;;;6.66;100.00;97068.44;5015376;28;20073;-49
2023/01/11 07:25:12;;;;;;;0.65;0.50;;;7.30;99.90;;;6.77;100.00;97062.91;5010785;28;20376;-49
2023/01/11 07:27:38;;;;;;;0.60;0.55;;;7.40;99.90;;;6.91;100.00;97055.53;5014965;28;20044;-51
2023/01/11 07:30:04;;;;;;;0.40;0.40;;;7.50;99.90;;;7.03;100.00;97063.06;5015533;28;20531;-50
2023/01/11 07:32:30;;;;;;;2.45;1.00;;;7.60;99.90;;;7.06;100.00;97060.34;5013030;28;20481;-51
2023/01/11 07:34:56;;;;;;;0.80;0.47;;;7.70;99.90;;;7.22;100.00;97058.13;5015248;28;20033;-49
2023/01/11 07:37:24;;;;;;;0.40;0.32;;;7.80;99.90;;;7.26;100.00;97059.75;5010891;28;20296;-48
2023/01/11 07:39:50;;;;;;;0.40;0.38;;;7.90;99.90;;;7.35;100.00;97069.13;5013780;28;20022;-50
2023/01/11 07:45:00;;;;;;;0.75;0.40;;;8.10;99.90;;;7.52;100.00;97076.50;5013880;28;20036;-49
2023/01/11 07:47:26;;;;;;;2.10;0.70;;;8.10;99.90;;;7.56;100.00;97072.88;5015708;28;20053;-49
2023/01/11 07:49:52;;;;;;;0.50;0.40;;;8.20;99.90;;;7.67;100.00;97075.19;5014783;28;20030;-50
2023/01/11 07:52:18;;;;;;;0.95;0.70;;;8.30;99.90;;;7.77;100.00;97066.13;5011237;28;20044;-51
2023/01/11 07:54:44;;;;;;;1.13;0.43;;;8.40;99.90;;;7.90;100.00;97071.00;5011787;28;20473;-49
2023/01/11 07:57:09;;;;;;;0.60;0.25;;;8.50;99.90;;;7.98;100.00;97071.59;5004760;28;20044;-49
2023/01/11 07:59:51;;;;;;;0.60;0.40;;;8.60;99.90;;;8.13;100.00;97067.59;5010360;28;20437;-52
2023/01/11 08:02:16;;;;;;;3.38;0.70;;;8.70;99.90;;;8.20;100.00;97071.75;5007553;28;20061;-48
2023/01/11 08:04:45;;;;;;;2.50;0.55;;;8.80;99.90;;;8.25;100.00;97076.88;5015882;28;20456;-48
2023/01/11 08:07:11;;;;;;;1.02;0.47;;;8.90;99.90;;;8.34;100.00;97066.91;5018629;28;20033;-46
2023/01/11 08:09:37;;;;;;;2.67;0.38;;;9.00;99.90;;;8.44;100.00;97072.75;5018316;28;20036;-47
2023/01/11 08:14:47;;;;;;;0.65;0.40;;;9.10;99.90;;;8.58;100.00;97091.53;5016610;28;20106;-48
2023/01/11 08:17:15;;;;;;;0.88;0.40;;;9.20;99.90;;;8.55;100.00;97077.66;5017288;28;20037;-50
2023/01/11 08:19:42;;;;;;;2.17;0.60;;;9.20;99.90;;;8.46;100.00;97070.94;5014082;28;20036;-50
2023/01/11 08:22:09;;;;;;;0.30;0.30;;;9.20;99.90;;;8.59;100.00;97092.41;5015010;28;20025;-48
2023/01/11 08:24:34;;;;;;;0.63;0.40;;;9.20;99.90;;;8.56;100.00;97084.59;5014080;28;20037;-47
2023/01/11 08:27:01;;;;;;;1.02;0.40;;;9.20;99.90;;;8.61;100.00;97090.56;5020303;28;20087;-50
2023/01/11 08:29:27;;;;;;;1.65;0.35;;;9.30;99.90;;;8.62;100.00;97086.19;5018233;28;20048;-51
2023/01/11 08:31:53;;;;;;;1.35;0.47;;;9.30;99.90;;;8.67;100.00;97087.75;5016859;28;20033;-51
2023/01/11 08:34:19;;;;;;;1.35;0.50;;;9.30;99.90;;;8.70;100.00;97084.13;5017626;28;20025;-51
2023/01/11 08:36:44;;;;;;;1.08;0.47;;;9.40;99.90;;;8.77;100.00;97085.66;5047203;22;20464;-39
2023/01/11 08:39:11;;;;;;;0.80;0.47;;;9.40;99.90;;;8.78;100.00;97084.75;5053993;28;20037;-39
2023/01/11 08:41:37;;;;;;;1.02;0.40;;;9.40;99.90;;;8.77;100.00;97078.66;5055727;28;20181;-39
2023/01/11 08:44:04;;;;;;;0.52;0.35;;;9.40;99.90;;;8.77;100.00;97076.00;5055436;28;20063;-39
2023/01/11 08:46:32;;;;;;;0.82;0.50;;;9.40;99.90;;;8.80;100.00;97067.16;5055528;28;20036;-39
2023/01/11 08:48:59;;;;;;;1.02;0.88;;;9.40;99.90;;;8.75;100.00;97072.56;5053725;28;20028;-39
2023/01/11 08:51:25;;;;;;;0.65;0.40;;;9.40;99.90;;;8.73;100.00;97070.91;5047217;28;20067;-39
2023/01/11 08:53:51;;;;;;;1.10;0.38;;;9.40;99.90;;;8.81;100.00;97089.91;5045552;28;20086;-39
2023/01/11 08:56:17;;;;;;;0.93;0.50;;;9.40;99.90;;;8.84;100.00;97086.31;5048879;28;20029;-39
2023/01/11 08:58:43;;;;;;;0.70;0.55;;;9.50;99.90;;;8.92;100.00;97084.28;5050214;28;20550;-38
2023/01/11 09:01:08;;;;;;;1.00;0.57;;;9.50;99.90;;;8.92;100.00;97089.53;5047202;28;20036;-38
2023/01/11 09:03:35;;;;;;;0.47;0.40;;;9.50;99.90;;;8.99;100.00;97091.03;5048757;28;20034;-38
2023/01/11 09:06:01;;;;;;;1.40;0.40;;;9.60;99.90;;;9.04;100.00;97093.47;5050827;28;20028;-38
2023/01/11 09:08:27;;;;;;;1.13;0.50;;;9.60;99.90;;;9.05;100.00;97085.53;5051957;28;20364;-39
2023/01/11 09:10:55;;;;;;;1.77;0.60;;;9.70;99.90;;;9.07;100.00;97088.13;5051370;28;20032;-38
2023/01/11 09:13:21;;;;;;;0.85;0.52;;;9.70;99.90;;;9.09;100.00;97087.13;5030870;28;20032;-39
2023/01/11 09:15:47;;;;;;;2.42;0.50;;;9.70;99.90;;;9.12;100.00;97088.81;5046783;28;20025;-39
2023/01/11 09:18:14;;;;;;;1.40;0.47;;;9.70;99.90;;;9.10;100.00;97093.28;5050940;28;21976;-39
2023/01/11 09:20:40;;;;;;;2.17;0.70;;;9.70;99.90;;;9.19;100.00;97087.69;5044444;28;20028;-39
2023/01/11 09:23:05;;;;;;;2.25;0.50;;;9.80;99.90;;;9.21;100.00;97087.63;5050187;28;20056;-39
2023/01/11 09:25:32;;;;;;;1.25;0.40;;;9.80;99.90;;;9.22;100.00;97076.19;5049348;28;20062;-39
2023/01/11 09:27:58;;;;;;;0.47;0.40;;;9.90;99.90;;;9.25;100.00;97092.72;5050958;28;20060;-37
2023/01/11 09:30:24;;;;;;;1.05;0.40;;;9.90;99.90;;;9.27;100.00;97084.75;5048664;28;20444;-39
2023/01/11 09:32:51;;;;;;;1.15;0.40;;;9.90;99.90;;;9.31;100.00;97081.97;5050504;28;20094;-39
2023/01/11 09:35:18;;;;;;;0.57;0.40;;;9.90;99.90;;;9.33;100.00;97080.13;5046039;28;20033;-39
2023/01/11 09:37:55;;;;;;;1.38;0.55;;;9.90;99.90;;;9.28;100.00;97073.34;5050590;28;20043;-39
2023/01/11 09:40:54;;;;;;;1.05;0.40;;;9.90;99.90;;;9.33;100.00;97089.78;5044885;28;20115;-39
2023/01/11 09:43:25;;;;;;;0.80;0.50;;;9.90;99.90;;;9.37;100.00;97083.50;5033177;28;20072;-39
2023/01/11 09:45:51;;;;;;;1.52;0.50;;;10.00;99.90;;;9.44;100.00;97081.50;5024600;28;20041;-39
2023/01/11 09:48:34;;;;;;;2.67;0.57;;;10.00;99.90;;;9.43;100.00;97080.66;5046131;28;20044;-39
2023/01/11 09:51:00;;;;;;;2.45;0.50;;;10.00;99.90;;;9.45;100.00;97081.44;5043923;28;20101;-39
2023/01/11 09:53:37;;;;;;;1.15;0.50;;;10.10;99.90;;;9.47;100.00;97084.88;5039014;28;20059;-39
2023/01/11 09:56:09;;;;;;;0.45;0.30;;;10.10;99.90;;;9.52;100.00;97080.28;5046981;28;20025;-39
2023/01/11 09:58:58;;;;;;;0.95;0.52;;;10.10;99.90;;;9.49;100.00;97092.72;5037149;28;20480;-39
2023/01/11 10:01:46;;;;;;;1.95;0.70;;;10.10;99.90;;;9.49;100.00;97087.44;5032228;28;20409;-40
2023/01/11 10:04:42;;;;;;;2.28;0.60;;;10.10;99.90;;;9.51;100.00;97081.22;5047240;28;20038;-39
2023/01/11 10:07:17;;;;;;;3.40;0.63;;;10.10;99.90;;;9.57;100.00;97082.75;5044278;28;20033;-39
2023/01/11 10:10:00;;;;;;;1.10;0.68;;;10.10;99.90;;;9.60;100.00;97082.66;5035603;28;20033;-39
2023/01/11 10:12:51;;;;;;;;;;;10.20;99.90;;;9.61;100.00;97088.78;5050882;28;20561;-39
2023/01/11 10:15:53;;;;;;;1.25;0.47;;;10.20;99.90;;;9.66;100.00;97087.66;5047285;28;19924;-37
2023/01/11 10:18:30;;;;;;;1.55;0.60;;;10.20;99.90;;;9.66;100.00;97082.41;5053117;28;20036;-38
2023/01/11 10:21:14;;;;;;;0.98;0.50;;;10.30;99.90;;;9.68;100.00;97082.34;5034843;28;20320;-38
2023/01/11 10:23:58;;;;;;;0.77;0.50;;;10.30;99.90;;;9.76;100.00;97088.16;5030363;28;20033;-38
2023/01/11 10:26:27;;;;;;;1.73;0.65;;;10.30;99.90;;;9.80;100.00;97078.38;5049032;28;20059;-38
2023/01/11 10:29:21;;;;;;;0.82;0.55;;;10.40;99.90;;;9.82;100.00;97081.81;5048915;28;20098;-38
2023/01/11 10:37:45;;;;;;;0.88;0.60;;;10.40;99.90;;;9.89;100.00;97083.31;5037326;28;20063;-38
2023/01/11 10:41:01;;;;;;;0.98;0.50;;;10.50;99.90;;;9.87;100.00;97074.56;5040845;28;20040;-38
2023/01/11 10:43:24;;;;;;;0.80;0.50;;;10.50;99.90;;;9.91;100.00;97076.19;5035171;28;20040;-39
2023/01/11 10:45:55;;;;;;;0.60;0.50;;;10.50;99.90;;;9.92;100.00;97076.13;5050287;28;20033;-38
2023/01/11 10:48:36;;;;;;;0.80;0.63;;;10.50;99.90;;;9.94;100.00;97073.41;5034960;28;20033;-39
2023/01/11 10:51:28;;;;;;;2.08;0.88;;;10.50;99.90;;;9.89;100.00;97068.34;5052095;28;20036;-38
2023/01/11 10:54:03;;;;;;;1.60;0.60;;;10.50;99.90;;;9.86;100.00;97073.72;5037217;28;20595;-38
2023/01/11 10:57:10;;;;;;;0.80;0.50;;;10.50;99.90;;;9.91;100.00;97086.72;5048737;28;20318;-39
2023/01/11 11:00:04;;;;;;;1.08;0.45;;;10.50;99.90;;;9.87;100.00;97074.56;5027135;28;20045;-39
2023/01/11 11:03:02;;;;;;;0.75;0.50;;;10.50;99.90;;;9.83;100.00;97073.84;5051405;28;20094;-39
2023/01/11 11:05:51;;;;;;;1.45;0.70;;;10.40;99.90;;;9.83;100.00;97067.72;5030625;28;20063;-40
2023/01/11 11:08:29;;;;;;;0.50;0.45;;;10.40;99.90;;;9.83;100.00;97065.09;5034433;28;20075;-38
2023/01/11 11:11:00;;;;;;;0.63;0.50;;;10.40;99.90;;;9.87;100.00;97061.41;5051332;28;20024;-43
2023/01/11 11:14:12;;;;;;;1.48;0.75;;;10.50;99.90;;;9.85;100.00;97063.25;5029378;28;20058;-38
2023/01/11 11:16:56;;;;;;;1.38;0.50;;;10.50;99.90;;;9.84;100.00;97058.91;5029533;28;20071;-39